Time;durP1;ratioP1;P1;durP2;ratioP2;P2;SDS_P1;SDS_P2;PMS_P1;PMS_P2;Temp;Humidity;BMP_temperature;BMP_pressure;BME280_temperature;BME280_humidity;BME280_pressure;Samples;Min_cycle;Max_cycle;Signal;HPM_P1;HPM_P2
2024/02/11 00:02:16;;;;;;;;;;;;;;;27.14;25.16;96065.69;5085518;28;19916;-80
2024/02/11 00:04:45;;;;;;;;;;;;;;;28.05;24.15;96066.41;5110617;28;20389;-81
2024/02/11 00:07:11;;;;;;;;;;;;;;;28.47;23.59;96062.63;5109267;27;19924;-80
2024/02/11 00:09:38;;;;;;;;;;;;;;;29.00;22.89;96062.38;5131513;27;19920;-80
2024/02/11 00:12:04;;;;;;;;;;;;;;;29.40;22.15;96058.22;5107442;28;20373;-81
2024/02/11 00:14:30;;;;;;;;;;;;;;;29.64;22.11;96052.72;5100529;28;19920;-81
2024/02/11 00:16:59;;;;;;;;;;;;;;;29.72;21.71;96052.94;5099335;28;20262;-80
2024/02/11 00:19:30;;;;;;;;;;;;;;;28.89;22.93;96053.94;5097282;28;20011;-80
2024/02/11 00:21:56;;;;;;;;;;;;;;;28.43;23.61;96050.78;5097147;28;19919;-81
2024/02/11 00:24:23;;;;;;;;;;;;;;;28.72;22.76;96053.16;5111525;28;19919;-81
2024/02/11 00:26:49;;;;;;;;;;;;;;;28.82;22.87;96056.50;5111584;27;19985;-80
2024/02/11 00:29:17;;;;;;;;;;;;;;;29.32;22.16;96055.16;5109179;27;20009;-81
2024/02/11 00:31:43;;;;;;;;;;;;;;;27.96;23.90;96050.44;5107788;28;19916;-80
2024/02/11 00:34:09;;;;;;;;;;;;;;;28.48;23.24;96050.03;5098949;28;19965;-80
2024/02/11 00:36:36;;;;;;;;;;;;;;;29.19;22.35;96045.69;5111689;28;19916;-80
2024/02/11 00:39:02;;;;;;;;;;;;;;;28.49;23.26;96045.94;5099613;28;20487;-81
2024/02/11 00:41:28;;;;;;;;;;;;;;;28.16;23.66;96051.53;5111472;27;19923;-81
2024/02/11 00:43:55;;;;;;;;;;;;;;;27.69;24.46;96033.44;5089070;28;20062;-80
2024/02/11 00:46:22;;;;;;;;;;;;;;;27.01;25.29;96044.84;5080691;28;20031;-80
2024/02/11 00:48:50;;;;;;;;;;;;;;;27.33;24.64;96043.50;5081104;28;20219;-80
2024/02/11 00:51:19;;;;;;;;;;;;;;;27.61;24.46;96040.84;5092081;28;19924;-80
2024/02/11 00:53:45;;;;;;;;;;;;;;;27.82;23.82;96045.78;5084124;28;20294;-80
2024/02/11 00:56:12;;;;;;;;;;;;;;;27.72;24.06;96044.50;5091172;28;19927;-80
2024/02/11 00:58:41;;;;;;;;;;;;;;;27.37;24.17;96047.69;5077315;28;19916;-80
2024/02/11 01:01:07;;;;;;;;;;;;;;;26.70;25.42;96045.63;5056685;28;19916;-80
2024/02/11 01:03:35;;;;;;;;;;;;;;;26.70;25.37;96051.25;5075560;28;19939;-81
2024/02/11 01:06:01;;;;;;;;;;;;;;;26.81;25.10;96051.41;5075222;28;20291;-81
2024/02/11 01:08:27;;;;;;;;;;;;;;;25.71;26.64;96040.59;5074715;28;20064;-80
2024/02/11 01:10:53;;;;;;;;;;;;;;;26.97;25.17;96058.41;5087001;28;19952;-80
2024/02/11 01:13:19;;;;;;;;;;;;;;;27.45;24.22;96038.72;5075653;28;19959;-81
2024/02/11 01:15:46;;;;;;;;;;;;;;;27.75;23.91;96035.00;5074379;28;19917;-81
2024/02/11 01:18:13;;;;;;;;;;;;;;;25.65;26.47;96033.38;5081481;28;20294;-81
2024/02/11 01:20:39;;;;;;;;;;;;;;;25.75;26.39;96034.75;5074892;28;19942;-80
2024/02/11 01:23:05;;;;;;;;;;;;;;;27.08;24.94;96028.25;5079796;28;19947;-81
2024/02/11 01:25:31;;;;;;;;;;;;;;;28.26;23.58;96033.88;5071974;28;20324;-81
2024/02/11 01:27:57;;;;;;;;;;;;;;;27.66;23.75;96023.94;5082090;28;20007;-81
2024/02/11 01:30:24;;;;;;;;;;;;;;;25.20;27.08;96026.41;5085569;28;20024;-80
2024/02/11 01:32:50;;;;;;;;;;;;;;;26.39;25.77;96023.16;5083191;28;19952;-80
2024/02/11 01:35:16;;;;;;;;;;;;;;;27.25;24.49;96017.09;5080534;28;20353;-80
2024/02/11 01:37:43;;;;;;;;;;;;;;;27.23;24.48;96011.97;5080048;28;20349;-80
2024/02/11 01:40:12;;;;;;;;;;;;;;;26.45;25.65;96018.31;5089999;28;19920;-81
2024/02/11 01:42:39;;;;;;;;;;;;;;;27.21;24.52;96008.84;5086191;28;20390;-81
2024/02/11 01:45:06;;;;;;;;;;;;;;;28.16;23.37;96000.75;5081629;28;19920;-81
2024/02/11 01:47:32;;;;;;;;;;;;;;;27.84;23.66;96008.63;5088199;28;19973;-80
2024/02/11 01:49:58;;;;;;;;;;;;;;;27.92;23.50;96004.00;5093434;28;19924;-81
2024/02/11 01:52:28;;;;;;;;;;;;;;;28.60;22.72;96006.44;5084960;28;19974;-81
2024/02/11 01:54:54;;;;;;;;;;;;;;;27.95;23.37;96003.78;5078654;28;19928;-80
2024/02/11 01:57:20;;;;;;;;;;;;;;;27.47;23.88;95996.72;5088832;28;19926;-80
2024/02/11 01:59:46;;;;;;;;;;;;;;;27.32;24.42;95996.88;5084288;28;19919;-80
2024/02/11 02:02:16;;;;;;;;;;;;;;;28.30;23.50;95996.91;5076594;28;19920;-81
2024/02/11 02:04:43;;;;;;;;;;;;;;;28.80;22.69;95991.28;5081461;28;19927;-81
2024/02/11 02:07:09;;;;;;;;;;;;;;;29.30;21.92;95991.94;5085779;28;19924;-80
2024/02/11 02:09:37;;;;;;;;;;;;;;;29.51;21.97;95995.19;5079418;28;19934;-80
2024/02/11 02:12:04;;;;;;;;;;;;;;;29.71;21.72;95989.19;5083248;28;19920;-80
2024/02/11 02:14:30;;;;;;;;;;;;;;;29.80;21.34;95989.66;5079686;28;19920;-80
2024/02/11 02:16:56;;;;;;;;;;;;;;;30.02;21.11;95983.88;5085773;28;19920;-80
2024/02/11 02:19:25;;;;;;;;;;;;;;;29.81;21.49;95991.22;5082856;28;19920;-80
2024/02/11 02:21:51;;;;;;;;;;;;;;;29.11;22.30;95990.94;5080431;28;20370;-80
2024/02/11 02:24:17;;;;;;;;;;;;;;;28.58;23.18;95989.22;5088672;28;20389;-80
2024/02/11 02:26:43;;;;;;;;;;;;;;;28.30;23.32;95988.44;5082340;28;20033;-80
2024/02/11 02:29:09;;;;;;;;;;;;;;;28.18;23.50;95981.25;5089673;28;20393;-81
2024/02/11 02:31:35;;;;;;;;;;;;;;;28.23;23.25;95989.72;5085662;28;19924;-80
2024/02/11 02:34:01;;;;;;;;;;;;;;;28.57;22.83;95982.78;5074817;28;20358;-80
2024/02/11 02:36:28;;;;;;;;;;;;;;;28.08;23.44;95988.44;5056711;28;19925;-80
2024/02/11 02:38:54;;;;;;;;;;;;;;;27.96;23.50;95977.09;5076834;28;20018;-80
2024/02/11 02:41:19;;;;;;;;;;;;;;;28.31;23.26;95976.63;5077983;28;19967;-80
2024/02/11 02:43:46;;;;;;;;;;;;;;;28.70;22.53;95974.59;5081690;28;20330;-80
2024/02/11 02:46:13;;;;;;;;;;;;;;;28.82;22.64;95972.53;5103747;28;19973;-81
2024/02/11 02:48:39;;;;;;;;;;;;;;;28.52;22.92;95966.63;5103505;28;20376;-81
2024/02/11 02:51:05;;;;;;;;;;;;;;;28.24;23.27;95962.28;5103199;28;19927;-81
2024/02/11 02:53:31;;;;;;;;;;;;;;;27.94;23.63;95974.03;5102329;28;20301;-81
2024/02/11 02:55:57;;;;;;;;;;;;;;;28.06;23.69;95961.50;5094660;28;19924;-81
2024/02/11 02:58:23;;;;;;;;;;;;;;;28.22;23.32;95965.59;5105875;28;20444;-81
2024/02/11 03:00:49;;;;;;;;;;;;;;;28.18;23.64;95964.31;5107908;28;20392;-81
2024/02/11 03:03:17;;;;;;;;;;;;;;;27.54;24.04;95960.34;5097787;28;20292;-81
2024/02/11 03:05:45;;;;;;;;;;;;;;;27.49;24.20;95955.47;5094256;28;20420;-81
2024/02/11 03:08:12;;;;;;;;;;;;;;;27.62;24.07;95958.56;5106900;28;19934;-81
2024/02/11 03:10:38;;;;;;;;;;;;;;;28.11;23.52;95962.78;5103830;28;19975;-81
2024/02/11 03:13:04;;;;;;;;;;;;;;;28.18;23.63;95958.69;5108954;28;20296;-81
2024/02/11 03:15:32;;;;;;;;;;;;;;;28.89;22.80;95957.88;5091036;28;19967;-81
2024/02/11 03:18:07;;;;;;;;;;;;;;;29.16;22.49;95957.00;5094139;28;20022;-80
2024/02/11 03:20:33;;;;;;;;;;;;;;;29.00;22.68;95952.19;5104280;28;20402;-81
2024/02/11 03:22:59;;;;;;;;;;;;;;;29.24;22.33;95955.19;5084745;28;20290;-81
2024/02/11 03:25:26;;;;;;;;;;;;;;;29.48;22.03;95959.47;5103716;28;19932;-81
2024/02/11 03:27:54;;;;;;;;;;;;;;;29.80;21.66;95952.13;5084414;28;19923;-81
2024/02/11 03:30:21;;;;;;;;;;;;;;;29.60;21.85;95958.13;5103147;28;19916;-80
2024/02/11 03:32:51;;;;;;;;;;;;;;;29.22;22.42;95954.94;5103590;28;20220;-81
2024/02/11 03:35:17;;;;;;;;;;;;;;;27.64;24.29;95956.00;5094497;28;19943;-80
2024/02/11 03:37:43;;;;;;;;;;;;;;;27.42;24.69;95958.78;5092275;28;19922;-80
2024/02/11 03:40:12;;;;;;;;;;;;;;;27.27;24.83;95956.13;5109765;28;20420;-80
2024/02/11 03:42:38;;;;;;;;;;;;;;;28.02;23.85;95961.00;5107378;28;19923;-80
2024/02/11 03:45:11;;;;;;;;;;;;;;;28.68;22.93;95953.81;5106338;28;20341;-80
2024/02/11 03:47:40;;;;;;;;;;;;;;;27.87;24.06;95951.94;5103622;28;19934;-80
2024/02/11 03:50:09;;;;;;;;;;;;;;;27.90;24.15;95956.59;5109211;28;19920;-80
2024/02/11 03:52:35;;;;;;;;;;;;;;;28.72;23.16;95943.00;5113326;28;20007;-80
2024/02/11 03:55:07;;;;;;;;;;;;;;;29.31;22.32;95936.94;5111438;28;20445;-80
2024/02/11 03:57:34;;;;;;;;;;;;;;;29.48;22.04;95939.69;5111618;28;20012;-81
2024/02/11 04:00:12;;;;;;;;;;;;;;;29.27;22.48;95936.41;5105217;28;19920;-80
2024/02/11 04:02:38;;;;;;;;;;;;;;;29.06;22.66;95933.13;5099937;28;20388;-80
2024/02/11 04:05:05;;;;;;;;;;;;;;;28.41;23.90;95923.50;5104122;28;19942;-80
2024/02/11 04:07:31;;;;;;;;;;;;;;;28.24;23.83;95931.25;5101388;28;19912;-80
2024/02/11 04:10:09;;;;;;;;;;;;;;;28.45;23.97;95918.41;5106149;28;19943;-80
2024/02/11 04:12:35;;;;;;;;;;;;;;;29.09;22.98;95920.81;5097714;27;20416;-80
2024/02/11 04:15:02;;;;;;;;;;;;;;;29.47;22.76;95918.34;5115828;27;20006;-80
2024/02/11 04:17:28;;;;;;;;;;;;;;;29.74;22.17;95914.56;5113212;28;20936;-80
2024/02/11 04:19:54;;;;;;;;;;;;;;;29.24;22.93;95917.69;5096783;28;19955;-80
2024/02/11 04:22:22;;;;;;;;;;;;;;;29.03;23.32;95920.06;5098216;28;19920;-80
2024/02/11 04:24:49;;;;;;;;;;;;;;;29.12;23.12;95919.78;5101960;28;19959;-80
2024/02/11 04:27:16;;;;;;;;;;;;;;;29.39;23.11;95918.91;5115664;28;20010;-80
2024/02/11 04:29:44;;;;;;;;;;;;;;;29.33;23.36;95921.00;5097804;28;20383;-80
2024/02/11 04:32:11;;;;;;;;;;;;;;;29.32;22.85;95916.63;5113709;27;20288;-80
2024/02/11 04:34:41;;;;;;;;;;;;;;;29.57;23.22;95911.84;5110550;28;19928;-80
2024/02/11 04:37:07;;;;;;;;;;;;;;;28.42;24.57;95905.31;5105645;27;19924;-80
2024/02/11 04:39:33;;;;;;;;;;;;;;;28.48;24.41;95897.59;5102542;27;19920;-80
2024/02/11 04:41:59;;;;;;;;;;;;;;;28.92;23.52;95889.00;5112971;27;19920;-80
2024/02/11 04:44:30;;;;;;;;;;;;;;;29.04;23.45;95889.72;5114227;27;19981;-80
2024/02/11 04:46:57;;;;;;;;;;;;;;;28.88;23.46;95894.16;5103722;27;19927;-80
2024/02/11 04:49:23;;;;;;;;;;;;;;;29.26;23.08;95881.19;5102522;27;19962;-80
2024/02/11 04:51:49;;;;;;;;;;;;;;;29.57;22.59;95874.34;5105915;27;19920;-80
2024/02/11 04:54:15;;;;;;;;;;;;;;;29.74;22.86;95881.41;5109506;28;19920;-80
2024/02/11 04:56:46;;;;;;;;;;;;;;;29.86;22.62;95879.28;5109775;28;20045;-80
2024/02/11 04:59:15;;;;;;;;;;;;;;;29.28;23.24;95879.38;5104611;27;20010;-80
2024/02/11 05:01:44;;;;;;;;;;;;;;;29.14;23.43;95874.03;5098981;27;20289;-80
2024/02/11 05:04:10;;;;;;;;;;;;;;;28.82;23.86;95867.22;5104323;27;19988;-80
2024/02/11 05:06:38;;;;;;;;;;;;;;;28.99;23.47;95862.28;5106561;28;20335;-80
2024/02/11 05:09:04;;;;;;;;;;;;;;;29.18;23.68;95864.00;5102951;27;19921;-80
2024/02/11 05:11:30;;;;;;;;;;;;;;;28.99;23.43;95859.44;5109745;27;19916;-80
2024/02/11 05:13:58;;;;;;;;;;;;;;;29.27;23.25;95866.53;5110334;28;19943;-80
2024/02/11 05:16:27;;;;;;;;;;;;;;;29.47;23.02;95861.78;5106554;27;19928;-80
2024/02/11 05:18:54;;;;;;;;;;;;;;;29.63;22.99;95858.09;5106573;27;19919;-80
2024/02/11 05:21:21;;;;;;;;;;;;;;;29.79;22.74;95869.31;5106376;27;20404;-80
2024/02/11 05:23:48;;;;;;;;;;;;;;;29.67;22.77;95859.34;5105340;28;20356;-80
2024/02/11 05:26:17;;;;;;;;;;;;;;;29.61;22.89;95864.28;5101580;27;19960;-80
2024/02/11 05:28:43;;;;;;;;;;;;;;;29.05;23.71;95863.03;5103151;27;19927;-80
2024/02/11 05:31:17;;;;;;;;;;;;;;;28.52;24.03;95853.69;5103693;28;19967;-80
2024/02/11 05:33:43;;;;;;;;;;;;;;;28.56;24.05;95859.06;5099059;27;19920;-80
2024/02/11 05:36:09;;;;;;;;;;;;;;;28.24;24.32;95849.41;5083932;28;19920;-80
2024/02/11 05:38:41;;;;;;;;;;;;;;;28.22;24.32;95846.28;5100972;27;19920;-80
2024/02/11 05:41:08;;;;;;;;;;;;;;;28.19;24.62;95848.13;5112634;28;19969;-80
2024/02/11 05:43:35;;;;;;;;;;;;;;;28.48;24.39;95847.53;5109903;28;19919;-80
2024/02/11 05:46:02;;;;;;;;;;;;;;;28.81;23.71;95855.16;5104312;27;20263;-80
2024/02/11 05:48:28;;;;;;;;;;;;;;;29.07;23.47;95858.41;5107750;27;19919;-80
2024/02/11 05:50:54;;;;;;;;;;;;;;;28.94;23.84;95855.34;5100577;28;19927;-80
2024/02/11 05:53:20;;;;;;;;;;;;;;;29.28;23.34;95856.78;5107853;27;19920;-80
2024/02/11 05:55:49;;;;;;;;;;;;;;;29.37;23.46;95859.28;5107235;27;19924;-80
2024/02/11 05:58:15;;;;;;;;;;;;;;;29.59;23.00;95869.69;5112745;28;19919;-80
2024/02/11 06:00:42;;;;;;;;;;;;;;;29.49;23.03;95859.97;5106679;27;19920;-81
2024/02/11 06:03:09;;;;;;;;;;;;;;;29.45;23.18;95865.16;5098200;27;20286;-80
2024/02/11 06:05:35;;;;;;;;;;;;;;;29.18;23.66;95851.94;5102369;27;19920;-81
2024/02/11 06:08:01;;;;;;;;;;;;;;;28.90;23.49;95854.88;5114095;27;19920;-81
2024/02/11 06:10:30;;;;;;;;;;;;;;;28.69;24.09;95856.47;5107701;28;19923;-80
2024/02/11 06:12:57;;;;;;;;;;;;;;;28.85;23.80;95860.53;5113603;27;19926;-81
2024/02/11 06:15:24;;;;;;;;;;;;;;;29.22;23.36;95863.75;5100617;27;19920;-80
2024/02/11 06:17:51;;;;;;;;;;;;;;;29.53;23.10;95868.94;5100725;27;20332;-80
2024/02/11 06:20:18;;;;;;;;;;;;;;;29.68;22.96;95871.44;5104177;28;20282;-80
2024/02/11 06:22:46;;;;;;;;;;;;;;;29.65;23.15;95875.28;5106565;27;20339;-80
2024/02/11 06:25:12;;;;;;;;;;;;;;;29.78;22.77;95878.34;5114000;28;19933;-80
2024/02/11 06:27:39;;;;;;;;;;;;;;;29.49;23.00;95873.34;5101109;28;19927;-80
2024/02/11 06:30:11;;;;;;;;;;;;;;;29.01;23.79;95876.66;5110991;28;19920;-80
2024/02/11 06:32:39;;;;;;;;;;;;;;;29.18;23.61;95880.97;5102739;28;19919;-80
2024/02/11 06:35:06;;;;;;;;;;;;;;;29.45;23.39;95881.34;5107602;28;19965;-80
2024/02/11 06:37:32;;;;;;;;;;;;;;;29.38;23.39;95879.84;5107486;27;19966;-80
2024/02/11 06:39:58;;;;;;;;;;;;;;;28.43;24.67;95881.41;5103055;28;20392;-81
2024/02/11 06:42:30;;;;;;;;;;;;;;;28.29;24.90;95885.28;5112208;27;19931;-81
2024/02/11 06:44:56;;;;;;;;;;;;;;;28.13;24.97;95886.84;5105127;28;19920;-81
2024/02/11 06:47:22;;;;;;;;;;;;;;;28.59;24.37;95892.72;5107659;28;20271;-80
2024/02/11 06:49:48;;;;;;;;;;;;;;;28.50;24.60;95886.53;5110436;28;19923;-80
2024/02/11 06:52:15;;;;;;;;;;;;;;;28.86;24.25;95882.63;5098534;28;19927;-81
2024/02/11 06:54:42;;;;;;;;;;;;;;;28.78;24.27;95892.16;5107622;27;19931;-80
2024/02/11 06:57:10;;;;;;;;;;;;;;;28.54;24.66;95884.25;5098775;28;19924;-80
2024/02/11 06:59:36;;;;;;;;;;;;;;;28.55;24.63;95882.94;5105006;28;19920;-81
2024/02/11 07:02:04;;;;;;;;;;;;;;;28.58;24.59;95882.69;5097451;28;19942;-79
2024/02/11 07:04:34;;;;;;;;;;;;;;;28.82;24.32;95876.47;5113593;28;19979;-80
2024/02/11 07:07:03;;;;;;;;;;;;;;;28.77;24.59;95879.31;5104225;28;19973;-81
2024/02/11 07:09:29;;;;;;;;;;;;;;;28.97;24.16;95862.78;5097441;28;19978;-80
2024/02/11 07:11:57;;;;;;;;;;;;;;;28.92;24.29;95874.88;5099153;28;19943;-81
2024/02/11 07:14:23;;;;;;;;;;;;;;;29.00;24.00;95867.41;5111318;28;19920;-81
2024/02/11 07:16:49;;;;;;;;;;;;;;;28.58;24.80;95868.56;5111412;28;19920;-81
2024/02/11 07:19:15;;;;;;;;;;;;;;;29.06;24.01;95868.16;5108524;28;19998;-81
2024/02/11 07:21:42;;;;;;;;;;;;;;;29.28;23.79;95879.38;5110854;28;20007;-81
2024/02/11 07:24:08;;;;;;;;;;;;;;;29.67;23.50;95881.19;5112013;28;19919;-81
2024/02/11 07:26:38;;;;;;;;;;;;;;;29.55;23.50;95876.91;5109268;28;20051;-81
2024/02/11 07:29:04;;;;;;;;;;;;;;;29.29;23.86;95874.50;5104297;28;19915;-81
2024/02/11 07:31:32;;;;;;;;;;;;;;;29.11;23.69;95875.06;5105771;28;19923;-81
2024/02/11 07:33:58;;;;;;;;;;;;;;;29.39;23.95;95876.50;5110520;28;19959;-81
2024/02/11 07:36:24;;;;;;;;;;;;;;;29.21;23.67;95877.09;5109825;28;19924;-81
2024/02/11 07:38:51;;;;;;;;;;;;;;;29.23;23.86;95871.69;5099443;28;19920;-81
2024/02/11 07:41:18;;;;;;;;;;;;;;;29.02;23.85;95878.97;5109345;28;19942;-80
2024/02/11 07:43:44;;;;;;;;;;;;;;;29.13;23.85;95878.13;5107130;28;19920;-81
2024/02/11 07:46:13;;;;;;;;;;;;;;;29.56;23.41;95882.03;5108222;28;19983;-81
2024/02/11 07:48:42;;;;;;;;;;;;;;;29.89;22.63;95879.00;5096390;28;19920;-80
2024/02/11 07:51:08;;;;;;;;;;;;;;;29.60;23.19;95878.91;5115190;28;19924;-81
2024/02/11 07:53:35;;;;;;;;;;;;;;;29.56;23.32;95882.03;5115731;28;19927;-80
2024/02/11 07:56:01;;;;;;;;;;;;;;;29.84;23.10;95879.81;5116183;28;19930;-81
2024/02/11 07:58:27;;;;;;;;;;;;;;;29.88;22.70;95888.00;5109699;27;20006;-80
2024/02/11 08:00:53;;;;;;;;;;;;;;;29.71;23.27;95887.34;5110909;28;19997;-81
2024/02/11 08:03:20;;;;;;;;;;;;;;;29.89;22.85;95886.72;5113453;28;19923;-81
2024/02/11 08:05:46;;;;;;;;;;;;;;;29.96;22.65;95883.34;5113820;28;19919;-81
2024/02/11 08:08:12;;;;;;;;;;;;;;;29.87;22.98;95878.00;5112136;28;19912;-81
2024/02/11 08:10:38;;;;;;;;;;;;;;;29.40;23.62;95874.44;5112929;28;19931;-81
2024/02/11 08:13:07;;;;;;;;;;;;;;;29.02;23.50;95872.53;5110224;28;19966;-81
2024/02/11 08:15:35;;;;;;;;;;;;;;;28.31;24.04;95865.81;5106981;27;19920;-81
2024/02/11 08:18:04;;;;;;;;;;;;;;;28.33;24.50;95868.88;5103935;28;19985;-81
2024/02/11 08:20:31;;;;;;;;;;;;;;;29.06;23.36;95870.19;5110440;28;19916;-81
2024/02/11 08:22:57;;;;;;;;;;;;;;;28.81;23.43;95866.47;5116005;28;19941;-81
2024/02/11 08:25:23;;;;;;;;;;;;;;;29.16;23.37;95860.91;5112289;28;19931;-81
2024/02/11 08:27:50;;;;;;;;;;;;;;;29.63;22.79;95864.50;5107099;28;19916;-81
2024/02/11 08:30:16;;;;;;;;;;;;;;;30.07;22.25;95860.59;5105024;28;20380;-81
2024/02/11 08:32:42;;;;;;;;;;;;;;;30.37;21.99;95864.19;5107338;28;19920;-81
2024/02/11 08:35:08;;;;;;;;;;;;;;;30.56;21.49;95856.53;5103166;28;19923;-81
2024/02/11 08:37:35;;;;;;;;;;;;;;;30.75;21.82;95860.19;5111632;28;19920;-81
2024/02/11 08:40:01;;;;;;;;;;;;;;;30.71;22.52;95865.38;5110859;28;20018;-81
2024/02/11 08:42:27;;;;;;;;;;;;;;;30.19;22.90;95867.69;5115214;28;19960;-81
2024/02/11 08:44:57;;;;;;;;;;;;;;;30.34;22.82;95862.41;5098613;27;20361;-81
2024/02/11 08:47:24;;;;;;;;;;;;;;;30.48;22.12;95866.91;5107520;28;19920;-81
2024/02/11 08:49:50;;;;;;;;;;;;;;;30.67;22.23;95867.75;5110953;28;19935;-81
2024/02/11 08:52:16;;;;;;;;;;;;;;;30.71;22.00;95871.03;5113932;28;19966;-81
2024/02/11 08:54:42;;;;;;;;;;;;;;;30.21;22.75;95864.31;5111119;28;19923;-81
2024/02/11 08:57:14;;;;;;;;;;;;;;;30.02;23.29;95867.84;5095852;28;19961;-81
2024/02/11 08:59:43;;;;;;;;;;;;;;;29.59;23.77;95866.09;5113733;28;19916;-81
2024/02/11 09:02:10;;;;;;;;;;;;;;;29.33;23.57;95864.47;5104819;28;19956;-81
2024/02/11 09:04:39;;;;;;;;;;;;;;;29.38;23.24;95860.06;5107285;28;20294;-81
2024/02/11 09:07:07;;;;;;;;;;;;;;;29.61;22.83;95860.69;5106962;28;20392;-81
2024/02/11 09:09:33;;;;;;;;;;;;;;;29.68;23.14;95860.09;5110112;28;19915;-80
2024/02/11 09:11:59;;;;;;;;;;;;;;;29.69;22.87;95861.63;5106406;28;19967;-82
2024/02/11 09:14:26;;;;;;;;;;;;;;;29.72;22.89;95860.59;5104151;27;19919;-80
2024/02/11 09:16:52;;;;;;;;;;;;;;;29.72;22.76;95866.25;5102749;28;19974;-80
2024/02/11 09:19:18;;;;;;;;;;;;;;;29.96;22.54;95852.22;5111767;28;19920;-80
2024/02/11 09:21:45;;;;;;;;;;;;;;;30.19;22.16;95855.59;5102593;28;20313;-80
2024/02/11 09:24:11;;;;;;;;;;;;;;;30.53;22.42;95854.75;5104999;27;19920;-80
2024/02/11 09:26:37;;;;;;;;;;;;;;;30.65;22.63;95853.34;5102623;27;20377;-80
2024/02/11 09:29:05;;;;;;;;;;;;;;;30.20;23.13;95854.31;5110807;28;19916;-80
2024/02/11 09:31:31;;;;;;;;;;;;;;;30.13;22.41;95864.13;5114877;28;19976;-80
2024/02/11 09:33:58;;;;;;;;;;;;;;;29.38;23.66;95857.97;5110995;28;20396;-80
2024/02/11 09:36:24;;;;;;;;;;;;;;;28.77;24.79;95865.19;5107340;28;20302;-81
2024/02/11 09:38:51;;;;;;;;;;;;;;;28.51;24.42;95862.69;5110603;28;20458;-81
2024/02/11 09:41:17;;;;;;;;;;;;;;;28.85;24.08;95871.81;5102054;27;19959;-80
2024/02/11 09:43:45;;;;;;;;;;;;;;;29.58;23.74;95864.53;5104824;28;20289;-81
2024/02/11 09:46:17;;;;;;;;;;;;;;;30.18;23.10;95866.16;5107270;28;20296;-81
2024/02/11 09:48:46;;;;;;;;;;;;;;;30.51;22.77;95856.59;5110300;28;19926;-81
2024/02/11 09:51:13;;;;;;;;;;;;;;;30.41;22.39;95855.44;5108688;28;19923;-81
2024/02/11 09:53:48;;;;;;;;;;;;;;;30.35;22.74;95858.31;5107572;28;19931;-80
2024/02/11 09:56:19;;;;;;;;;;;;;;;30.45;22.23;95862.31;5110983;28;20023;-80
2024/02/11 09:58:45;;;;;;;;;;;;;;;30.34;22.75;95862.41;5100737;28;19924;-80
2024/02/11 10:01:13;;;;;;;;;;;;;;;30.31;22.61;95865.53;5106058;28;19916;-80
2024/02/11 10:03:40;;;;;;;;;;;;;;;30.35;22.55;95860.34;5107924;28;19993;-80
2024/02/11 10:06:09;;;;;;;;;;;;;;;30.42;22.32;95873.94;5112747;28;20376;-80
2024/02/11 10:08:36;;;;;;;;;;;;;;;30.41;21.98;95861.09;5110072;28;19919;-80
2024/02/11 10:11:07;;;;;;;;;;;;;;;29.36;23.35;95865.44;5103660;28;19919;-79
2024/02/11 10:13:35;;;;;;;;;;;;;;;29.30;23.33;95867.53;5101297;28;19912;-79
2024/02/11 10:16:07;;;;;;;;;;;;;;;29.42;23.27;95872.63;5109347;28;20377;-79
2024/02/11 10:18:34;;;;;;;;;;;;;;;29.60;23.14;95864.78;5107024;28;19926;-80
2024/02/11 10:21:00;;;;;;;;;;;;;;;29.15;23.48;95865.03;5112553;27;20254;-80
2024/02/11 10:23:26;;;;;;;;;;;;;;;29.27;23.36;95858.06;5111038;28;19966;-80
2024/02/11 10:25:53;;;;;;;;;;;;;;;29.78;23.11;95861.34;5098392;28;20289;-82
2024/02/11 10:28:19;;;;;;;;;;;;;;;30.08;22.51;95859.31;5083189;28;19923;-80
2024/02/11 10:30:45;;;;;;;;;;;;;;;30.39;22.70;95850.28;5092715;28;19920;-81
2024/02/11 10:33:11;;;;;;;;;;;;;;;30.70;21.89;95846.09;5104230;28;19923;-80
2024/02/11 10:35:37;;;;;;;;;;;;;;;30.52;22.02;95844.75;5105685;28;19920;-80
2024/02/11 10:38:07;;;;;;;;;;;;;;;30.02;21.94;95841.59;5109862;28;19920;-80
2024/02/11 10:40:36;;;;;;;;;;;;;;;29.80;22.78;95841.78;5108089;27;19927;-80
2024/02/11 10:43:04;;;;;;;;;;;;;;;29.78;22.94;95836.66;5102323;28;19922;-80
2024/02/11 10:45:31;;;;;;;;;;;;;;;27.87;24.42;95827.06;5105216;28;19933;-80
2024/02/11 10:47:57;;;;;;;;;;;;;;;27.97;24.48;95817.06;5110480;28;20330;-80
2024/02/11 10:50:23;;;;;;;;;;;;;;;28.14;24.78;95812.22;5106102;28;19920;-80
2024/02/11 10:52:52;;;;;;;;;;;;;;;28.70;23.82;95807.19;5101390;28;19965;-80
2024/02/11 10:55:20;;;;;;;;;;;;;;;28.90;24.05;95804.00;5103558;28;19934;-80
2024/02/11 10:57:52;;;;;;;;;;;;;;;29.71;23.04;95808.16;5110199;28;19973;-81
2024/02/11 11:00:20;;;;;;;;;;;;;;;30.22;22.64;95806.41;5107141;28;19916;-81
2024/02/11 11:02:49;;;;;;;;;;;;;;;30.54;21.96;95796.06;5109350;28;19930;-81
2024/02/11 11:05:17;;;;;;;;;;;;;;;30.38;22.41;95808.34;5091984;28;20380;-81
2024/02/11 11:07:48;;;;;;;;;;;;;;;30.65;22.28;95810.06;5109225;28;19920;-81
2024/02/11 11:10:15;;;;;;;;;;;;;;;30.81;22.01;95805.53;5110139;28;19927;-81
2024/02/11 11:12:46;;;;;;;;;;;;;;;30.64;21.53;95806.47;5112610;28;19916;-81
2024/02/11 11:15:12;;;;;;;;;;;;;;;30.58;22.57;95802.94;5106271;28;20396;-81
2024/02/11 11:17:38;;;;;;;;;;;;;;;30.53;22.10;95800.94;5111248;28;20416;-80
2024/02/11 11:20:12;;;;;;;;;;;;;;;30.64;22.41;95803.63;5107520;28;20373;-81
2024/02/11 11:22:39;;;;;;;;;;;;;;;30.94;21.72;95803.56;5111891;28;19924;-81
2024/02/11 11:25:11;;;;;;;;;;;;;;;31.10;21.79;95804.66;5113190;28;19939;-80
2024/02/11 11:27:37;;;;;;;;;;;;;;;30.78;21.69;95802.44;5109758;28;19924;-80
2024/02/11 11:30:06;;;;;;;;;;;;;;;30.85;21.52;95803.91;5090422;28;19920;-80
2024/02/11 11:32:33;;;;;;;;;;;;;;;31.06;22.08;95787.19;5106896;28;19927;-81
2024/02/11 11:35:00;;;;;;;;;;;;;;;30.98;21.48;95786.25;5115175;28;19915;-81
2024/02/11 11:37:26;;;;;;;;;;;;;;;30.89;21.67;95790.25;5108257;28;19919;-81
2024/02/11 11:39:54;;;;;;;;;;;;;;;31.10;22.42;95796.91;5104353;27;19916;-81
2024/02/11 11:42:21;;;;;;;;;;;;;;;31.30;21.58;95801.25;5108185;27;20015;-81
2024/02/11 11:44:47;;;;;;;;;;;;;;;31.27;21.70;95799.50;5104760;27;19978;-81
2024/02/11 11:47:13;;;;;;;;;;;;;;;31.10;21.57;95798.97;5087325;28;20326;-82
2024/02/11 11:49:39;;;;;;;;;;;;;;;31.01;21.74;95791.63;5097442;28;19923;-80
2024/02/11 11:52:08;;;;;;;;;;;;;;;30.48;22.11;95787.59;5101930;27;19916;-81
2024/02/11 11:54:34;;;;;;;;;;;;;;;30.65;21.99;95790.25;5109247;27;20304;-80
2024/02/11 11:57:01;;;;;;;;;;;;;;;30.22;22.61;95784.53;5101318;27;20373;-81
2024/02/11 11:59:27;;;;;;;;;;;;;;;30.36;22.26;95789.06;5104502;28;20281;-80
2024/02/11 12:01:55;;;;;;;;;;;;;;;30.66;22.73;95786.13;5102759;27;19920;-80
2024/02/11 12:04:22;;;;;;;;;;;;;;;31.00;21.61;95787.25;5105680;28;19961;-80
2024/02/11 12:06:48;;;;;;;;;;;;;;;30.85;21.73;95777.66;5103925;27;19974;-80
2024/02/11 12:09:14;;;;;;;;;;;;;;;30.74;21.94;95784.22;5100955;27;19921;-80
2024/02/11 12:11:43;;;;;;;;;;;;;;;30.93;22.27;95796.34;5107228;28;19926;-80
2024/02/11 12:14:11;;;;;;;;;;;;;;;31.15;21.84;95783.97;5104007;27;20331;-80
2024/02/11 12:16:37;;;;;;;;;;;;;;;31.37;21.56;95778.72;5101562;28;19919;-80
2024/02/11 12:19:04;;;;;;;;;;;;;;;31.46;21.58;95777.56;5100097;28;19920;-80
2024/02/11 12:21:31;;;;;;;;;;;;;;;30.92;21.75;95774.22;5101008;28;20377;-80
2024/02/11 12:24:00;;;;;;;;;;;;;;;30.94;21.91;95775.22;5099006;27;20636;-80
2024/02/11 12:26:27;;;;;;;;;;;;;;;30.45;22.13;95766.03;5111044;28;19932;-80
2024/02/11 12:28:53;;;;;;;;;;;;;;;30.35;22.66;95773.34;5109791;27;19923;-80
2024/02/11 12:31:21;;;;;;;;;;;;;;;30.52;22.84;95768.28;5105397;28;19927;-80
2024/02/11 12:33:49;;;;;;;;;;;;;;;30.85;21.98;95761.41;5098560;28;19920;-80
2024/02/11 12:36:19;;;;;;;;;;;;;;;30.66;22.52;95761.41;5108198;28;19920;-80
2024/02/11 12:38:50;;;;;;;;;;;;;;;30.90;22.35;95762.66;5095555;28;19920;-80
2024/02/11 12:41:17;;;;;;;;;;;;;;;30.95;21.61;95748.41;5096061;28;20358;-80
2024/02/11 12:43:47;;;;;;;;;;;;;;;30.99;22.04;95753.78;5095649;27;19951;-80
2024/02/11 12:46:13;;;;;;;;;;;;;;;30.77;22.04;95760.47;5104137;27;19927;-80
2024/02/11 12:48:43;;;;;;;;;;;;;;;30.87;22.14;95758.03;5101191;28;19922;-80